createdAt,value
2022-10-28T00:01:25.142Z,20.05
2022-10-28T00:04:11.438Z,22.73
2022-10-28T00:06:57.576Z,19.90
2022-10-28T00:09:46.256Z,18.88
2022-10-28T00:12:36.321Z,24.23
2022-10-28T00:15:22.505Z,18.23
2022-10-28T00:18:11.548Z,18.15
2022-10-28T00:21:02.183Z,18.25
2022-10-28T00:23:48.082Z,23.13
2022-10-28T00:26:39.192Z,17.95
2022-10-28T00:29:25.566Z,19.88
2022-10-28T00:32:13.744Z,17.65
2022-10-28T00:35:00.463Z,19.20
2022-10-28T00:37:46.555Z,15.98
2022-10-28T00:40:36.057Z,23.00
2022-10-28T00:43:37.996Z,18.17
2022-10-28T00:46:47.437Z,21.95
2022-10-28T00:49:34.704Z,18.73
2022-10-28T00:52:24.255Z,27.23
2022-10-28T00:55:10.699Z,15.82
2022-10-28T00:58:02.527Z,18.38
2022-10-28T01:00:49.234Z,20.55
2022-10-28T01:03:37.531Z,23.25
2022-10-28T01:06:36.952Z,21.30
2022-10-28T01:15:40.652Z,17.08
2022-10-28T01:18:56.203Z,23.58
2022-10-28T01:22:04.898Z,17.67
2022-10-28T01:25:09.930Z,21.85
2022-10-28T01:27:56.184Z,22.90
2022-10-28T01:31:00.012Z,19.65
2022-10-28T01:34:03.288Z,32.40
2022-10-28T01:37:12.627Z,20.90
2022-10-28T01:40:18.747Z,19.33
2022-10-28T01:43:07.919Z,19.17
2022-10-28T01:46:14.702Z,20.13
2022-10-28T01:49:09.403Z,23.02
2022-10-28T01:52:00.706Z,19.63
2022-10-28T01:57:39.917Z,21.38
2022-10-28T02:00:26.487Z,25.55
2022-10-28T02:03:12.289Z,22.23
2022-10-28T02:06:03.405Z,22.38
2022-10-28T02:09:10.216Z,17.95
2022-10-28T02:12:08.363Z,19.63
2022-10-28T02:15:13.141Z,19.60
2022-10-28T02:18:23.725Z,23.13
2022-10-28T02:21:24.887Z,32.00
2022-10-28T02:24:22.821Z,27.85
2022-10-28T02:27:16.757Z,22.25
2022-10-28T02:30:19.128Z,22.40
2022-10-28T02:33:11.527Z,22.45
2022-10-28T02:36:05.698Z,18.73
2022-10-28T02:38:58.144Z,22.67
2022-10-28T02:41:51.334Z,25.70
2022-10-28T02:44:44.443Z,21.70
2022-10-28T02:47:37.883Z,29.42
2022-10-28T02:50:31.973Z,28.25
2022-10-28T02:56:21.346Z,24.00
2022-10-28T02:59:13.044Z,27.98
2022-10-28T03:01:59.722Z,20.80
2022-10-28T03:04:46.224Z,22.48
2022-10-28T03:07:32.261Z,25.15
2022-10-28T03:10:18.639Z,26.73
2022-10-28T03:13:04.870Z,30.25
2022-10-28T03:15:50.669Z,24.25
2022-10-28T03:18:36.676Z,31.65
2022-10-28T03:21:22.688Z,22.48
2022-10-28T03:24:08.668Z,23.13
2022-10-28T03:26:54.619Z,31.05
2022-10-28T03:29:44.810Z,30.70
2022-10-28T03:32:32.441Z,26.63
2022-10-28T03:35:18.485Z,27.33
2022-10-28T03:38:04.643Z,28.02
2022-10-28T03:40:52.606Z,25.05
2022-10-28T03:43:38.414Z,22.45
2022-10-28T03:46:24.281Z,27.27
2022-10-28T03:49:10.143Z,25.55
2022-10-28T03:51:56.087Z,25.75
2022-10-28T03:54:42.113Z,31.10
2022-10-28T03:57:31.583Z,28.25
2022-10-28T04:00:18.215Z,29.40
2022-10-28T04:03:04.554Z,33.60
2022-10-28T04:05:50.978Z,24.80
2022-10-28T04:08:37.363Z,25.83
2022-10-28T04:11:23.300Z,30.77
2022-10-28T04:14:09.192Z,24.30
2022-10-28T04:16:55.295Z,26.70
2022-10-28T04:19:41.244Z,28.00
2022-10-28T04:22:27.102Z,26.50
2022-10-28T04:25:13.064Z,22.77
2022-10-28T04:27:59.028Z,24.80
2022-10-28T04:30:47.595Z,25.92
2022-10-28T04:33:34.090Z,27.70
2022-10-28T04:36:20.035Z,25.13
2022-10-28T04:39:06.471Z,30.88
2022-10-28T04:41:52.509Z,25.65
2022-10-28T04:44:38.579Z,26.08
2022-10-28T04:47:24.767Z,22.67
2022-10-28T04:50:10.959Z,24.52
2022-10-28T04:52:57.125Z,24.77
2022-10-28T04:55:43.631Z,24.58
2022-10-28T04:58:29.663Z,27.15
2022-10-28T05:01:15.715Z,22.42
2022-10-28T05:04:01.855Z,24.42
2022-10-28T05:06:48.148Z,20.90
2022-10-28T05:09:34.186Z,26.05
2022-10-28T05:12:20.423Z,22.30
2022-10-28T05:15:07.289Z,26.15
2022-10-28T05:17:53.769Z,20.20
2022-10-28T05:20:40.719Z,20.83
2022-10-28T05:23:28.506Z,18.13
2022-10-28T05:26:17.707Z,25.92
2022-10-28T05:29:03.939Z,16.05
2022-10-28T05:31:57.600Z,21.70
2022-10-28T05:34:43.597Z,23.20
2022-10-28T05:37:29.754Z,20.38
2022-10-28T05:40:15.689Z,21.60
2022-10-28T05:43:02.440Z,25.90
2022-10-28T05:45:56.352Z,23.90
2022-10-28T05:51:28.439Z,16.63
2022-10-28T05:54:14.771Z,20.75
2022-10-28T05:57:03.357Z,20.60
2022-10-28T05:59:49.390Z,21.83
2022-10-28T06:02:35.645Z,17.90
2022-10-28T06:05:21.783Z,23.48
2022-10-28T06:08:08.547Z,23.15
2022-10-28T06:10:56.659Z,20.23
2022-10-28T06:13:42.549Z,16.20
2022-10-28T06:16:28.392Z,20.42
2022-10-28T06:19:14.426Z,19.48
2022-10-28T06:22:00.412Z,16.08
2022-10-28T06:24:46.351Z,19.80
2022-10-28T06:27:32.241Z,25.20
2022-10-28T06:30:18.437Z,18.13
2022-10-28T06:33:04.571Z,14.30
2022-10-28T06:35:56.388Z,17.30
2022-10-28T06:38:42.784Z,21.58
2022-10-28T06:41:28.872Z,17.95
2022-10-28T06:44:15.037Z,23.85
2022-10-28T06:47:02.577Z,19.70
2022-10-28T06:49:48.549Z,22.75
2022-10-28T06:52:34.737Z,17.70
2022-10-28T06:55:23.101Z,19.75
2022-10-28T06:58:10.107Z,15.88
2022-10-28T07:00:58.609Z,21.05
2022-10-28T07:03:44.591Z,21.58
2022-10-28T07:06:30.503Z,20.15
2022-10-28T07:09:16.471Z,20.35
2022-10-28T07:12:05.057Z,19.23
2022-10-28T07:14:51.777Z,20.70
2022-10-28T07:17:37.837Z,23.08
2022-10-28T07:20:25.356Z,18.30
2022-10-28T07:23:11.857Z,18.25
2022-10-28T07:25:58.060Z,21.17
2022-10-28T07:28:44.075Z,24.13
2022-10-28T07:31:31.382Z,18.63
2022-10-28T07:34:17.618Z,18.73
2022-10-28T07:37:04.454Z,29.38
2022-10-28T07:39:50.439Z,18.92
2022-10-28T07:42:37.931Z,13.75
2022-10-28T07:45:24.074Z,18.40
2022-10-28T07:48:10.041Z,22.33
2022-10-28T07:50:55.985Z,19.73
2022-10-28T07:53:42.635Z,22.63
2022-10-28T07:56:28.800Z,21.00
2022-10-28T07:59:14.821Z,13.60
2022-10-28T08:02:00.839Z,16.55
2022-10-28T08:04:47.117Z,23.17
2022-10-28T08:07:36.210Z,14.63
2022-10-28T08:10:27.467Z,25.65
2022-10-28T08:13:13.373Z,24.75
2022-10-28T08:15:59.368Z,23.80
2022-10-28T08:18:45.932Z,25.10
2022-10-28T08:21:32.572Z,20.95
2022-10-28T08:24:18.856Z,19.75
2022-10-28T08:27:05.148Z,23.77
2022-10-28T08:29:53.262Z,19.83
2022-10-28T08:32:39.248Z,21.40
2022-10-28T08:35:25.124Z,18.17
2022-10-28T08:38:11.126Z,20.63
2022-10-28T08:41:25.512Z,21.45
2022-10-28T08:44:41.156Z,23.45
2022-10-28T08:47:47.241Z,23.42
2022-10-28T08:50:45.175Z,16.73
2022-10-28T08:54:03.019Z,23.65
2022-10-28T08:56:51.338Z,18.75
2022-10-28T08:59:40.899Z,27.50
2022-10-28T09:02:31.947Z,17.15
2022-10-28T09:05:22.695Z,19.52
2022-10-28T09:08:26.340Z,15.98
2022-10-28T09:11:37.257Z,19.95
2022-10-28T09:14:43.155Z,19.95
2022-10-28T09:17:36.631Z,24.10
2022-10-28T09:20:44.456Z,23.02
2022-10-28T09:23:34.263Z,24.35
2022-10-28T09:26:48.663Z,17.77
2022-10-28T09:32:52.559Z,13.93
2022-10-28T09:35:43.672Z,15.90
2022-10-28T09:38:40.461Z,11.20
2022-10-28T09:41:38.862Z,15.48
2022-10-28T09:44:45.244Z,11.02
2022-10-28T09:47:38.332Z,11.27
2022-10-28T09:50:29.647Z,13.40
2022-10-28T09:53:51.099Z,11.65
2022-10-28T09:56:37.931Z,8.70
2022-10-28T09:59:24.130Z,12.32
2022-10-28T10:02:27.524Z,7.15
2022-10-28T10:05:17.368Z,8.00
2022-10-28T10:08:05.426Z,6.95
2022-10-28T10:11:04.203Z,5.00
2022-10-28T10:13:51.718Z,5.55
2022-10-28T10:16:46.852Z,5.30
2022-10-28T10:20:03.070Z,7.65
2022-10-28T10:22:50.282Z,7.05
2022-10-28T10:25:36.422Z,8.35
2022-10-28T10:28:23.552Z,5.88
2022-10-28T10:31:27.008Z,6.55
2022-10-28T10:34:33.347Z,8.93
2022-10-28T10:37:30.508Z,9.23
2022-10-28T10:40:16.463Z,7.88
2022-10-28T10:43:17.805Z,6.47
2022-10-28T10:46:17.819Z,8.82
2022-10-28T10:49:14.867Z,8.77
2022-10-28T10:52:04.646Z,8.82
2022-10-28T10:55:07.351Z,6.60
2022-10-28T10:57:54.368Z,9.15
2022-10-28T11:00:50.393Z,6.93
2022-10-28T11:03:51.131Z,5.57
2022-10-28T11:06:40.678Z,9.25
2022-10-28T11:09:35.026Z,7.22
2022-10-28T11:12:35.611Z,6.50
2022-10-28T11:15:28.220Z,10.77
2022-10-28T11:18:20.899Z,6.22
2022-10-28T11:21:45.100Z,7.93
2022-10-28T11:27:38.409Z,8.10
2022-10-28T11:30:43.618Z,11.40
2022-10-28T11:33:51.146Z,9.20
2022-10-28T11:37:12.095Z,8.60
2022-10-28T11:40:33.394Z,10.43
2022-10-28T11:43:37.318Z,6.68
2022-10-28T11:46:32.011Z,6.43
2022-10-28T11:49:40.963Z,8.65
2022-10-28T11:52:45.257Z,9.65
2022-10-28T11:55:51.020Z,6.90
2022-10-28T11:59:02.242Z,9.07
2022-10-28T12:01:57.354Z,10.57
2022-10-28T12:04:49.102Z,10.93
2022-10-28T12:07:41.424Z,9.63
2022-10-28T12:10:35.962Z,10.00
2022-10-28T12:13:45.122Z,9.13
2022-10-28T12:16:43.367Z,15.68
2022-10-28T12:19:46.259Z,10.85
2022-10-28T12:22:46.810Z,11.00
2022-10-28T12:25:36.752Z,10.35
2022-10-28T12:28:43.687Z,10.18
2022-10-28T12:31:39.825Z,8.63
2022-10-28T12:34:42.253Z,9.75
2022-10-28T12:37:38.104Z,8.50
2022-10-28T12:40:35.411Z,9.35
2022-10-28T12:43:32.535Z,7.90
2022-10-28T12:46:37.126Z,9.00
2022-10-28T12:49:49.531Z,8.90
2022-10-28T12:52:56.066Z,7.43
2022-10-28T12:56:00.249Z,14.60
2022-10-28T12:58:52.680Z,7.07
2022-10-28T13:01:39.892Z,5.53
2022-10-28T13:04:27.342Z,13.07
2022-10-28T13:07:25.234Z,7.55
2022-10-28T13:10:31.275Z,9.75
2022-10-28T13:13:17.590Z,10.23
2022-10-28T13:16:17.402Z,6.50
2022-10-28T13:19:35.763Z,12.05
2022-10-28T13:22:57.252Z,10.48
2022-10-28T13:26:09.489Z,10.00
2022-10-28T13:28:59.446Z,8.27
2022-10-28T13:31:47.673Z,9.20
2022-10-28T13:34:37.596Z,9.73
2022-10-28T13:37:32.540Z,5.72
2022-10-28T13:40:42.032Z,10.23
2022-10-28T13:43:49.554Z,9.00
2022-10-28T13:47:04.282Z,14.10
2022-10-28T13:50:08.590Z,8.77
2022-10-28T13:53:37.923Z,6.63
2022-10-28T13:56:27.081Z,13.07
2022-10-28T13:59:13.238Z,6.45
2022-10-28T14:02:35.268Z,8.65
2022-10-28T14:05:37.017Z,9.73
2022-10-28T14:08:34.178Z,8.07
2022-10-28T14:11:24.579Z,8.90
2022-10-28T14:14:16.760Z,11.52
2022-10-28T14:17:04.262Z,8.25
2022-10-28T14:19:53.053Z,10.68
2022-10-28T14:22:39.034Z,7.47
2022-10-28T14:25:45.511Z,13.93
2022-10-28T14:28:31.952Z,7.82
2022-10-28T14:31:35.650Z,8.82
2022-10-28T14:34:21.507Z,8.13
2022-10-28T14:37:12.898Z,7.88
2022-10-28T14:40:06.446Z,6.55
2022-10-28T14:43:01.739Z,9.00
2022-10-28T14:46:12.224Z,7.03
2022-10-28T14:48:59.476Z,9.18
2022-10-28T14:51:46.682Z,5.80
2022-10-28T14:54:48.941Z,7.82
2022-10-28T14:57:35.032Z,13.45
2022-10-28T15:00:25.827Z,7.40
2022-10-28T15:03:14.051Z,9.82
2022-10-28T15:06:19.334Z,7.90
2022-10-28T15:09:25.154Z,7.85
2022-10-28T15:12:17.167Z,8.55
2022-10-28T15:15:04.589Z,8.60
2022-10-28T15:17:51.401Z,10.20
2022-10-28T15:20:37.487Z,6.90
2022-10-28T15:23:24.578Z,8.13
2022-10-28T15:26:15.628Z,7.25
2022-10-28T15:29:02.003Z,11.10
2022-10-28T15:32:33.384Z,13.43
2022-10-28T15:35:29.680Z,12.23
2022-10-28T15:38:21.799Z,13.23
2022-10-28T15:41:22.898Z,18.20
2022-10-28T15:44:37.449Z,11.23
2022-10-28T15:47:34.170Z,12.50
2022-10-28T15:50:22.873Z,11.05
2022-10-28T15:53:11.636Z,12.98
2022-10-28T15:56:19.369Z,10.68
2022-10-28T15:59:20.930Z,14.27
2022-10-28T16:02:42.631Z,9.85
2022-10-28T16:05:34.742Z,15.60
2022-10-28T16:08:32.304Z,12.98
2022-10-28T16:11:20.055Z,15.82
2022-10-28T16:14:39.529Z,14.45
2022-10-28T16:17:29.237Z,10.73
2022-10-28T16:20:20.586Z,12.18
2022-10-28T16:23:22.400Z,10.43
2022-10-28T16:26:12.037Z,12.15
2022-10-28T16:28:57.895Z,11.45
2022-10-28T16:31:46.860Z,11.90
2022-10-28T16:34:32.812Z,11.55
2022-10-28T16:37:27.068Z,10.70
2022-10-28T16:40:37.621Z,6.90
2022-10-28T16:43:25.573Z,9.75
2022-10-28T16:46:12.939Z,14.43
2022-10-28T16:48:58.769Z,8.52
2022-10-28T16:51:45.436Z,8.95
2022-10-28T16:54:31.306Z,13.43
2022-10-28T16:57:19.501Z,14.30
2022-10-28T17:00:06.706Z,11.30
2022-10-28T17:02:54.079Z,14.82
2022-10-28T17:05:40.500Z,12.68
2022-10-28T17:08:49.398Z,10.98
2022-10-28T17:11:33.922Z,9.85
2022-10-28T17:14:19.845Z,11.85
2022-10-28T17:17:05.697Z,11.98
2022-10-28T17:19:53.693Z,13.23
2022-10-28T17:22:40.771Z,9.68
2022-10-28T17:25:28.260Z,13.13
2022-10-28T17:28:14.461Z,10.00
2022-10-28T17:31:08.383Z,11.60
2022-10-28T17:33:55.119Z,10.23
2022-10-28T17:36:41.195Z,8.15
2022-10-28T17:39:27.160Z,11.75
2022-10-28T17:42:13.432Z,13.07
2022-10-28T17:45:03.593Z,11.65
2022-10-28T17:47:49.989Z,9.55
2022-10-28T17:50:35.995Z,9.60
2022-10-28T17:53:22.232Z,10.27
2022-10-28T17:56:12.512Z,5.72
2022-10-28T17:59:02.242Z,7.35
2022-10-28T18:01:49.304Z,5.93
2022-10-28T18:04:35.562Z,5.93
2022-10-28T18:07:21.706Z,8.48
2022-10-28T18:10:08.542Z,11.35
2022-10-28T18:12:54.640Z,8.55
2022-10-28T18:15:40.936Z,10.18
2022-10-28T18:18:26.877Z,9.10
2022-10-28T18:21:24.328Z,9.73
2022-10-28T18:24:11.918Z,10.20
2022-10-28T18:26:58.402Z,10.05
2022-10-28T18:29:44.430Z,9.10
2022-10-28T18:32:32.308Z,7.38
2022-10-28T18:35:18.447Z,8.73
2022-10-28T18:38:04.506Z,8.63
2022-10-28T18:40:50.464Z,10.30
2022-10-28T18:43:36.511Z,10.90
2022-10-28T18:46:23.184Z,7.95
2022-10-28T18:49:09.353Z,11.93
2022-10-28T18:51:55.307Z,8.00
2022-10-28T18:54:41.244Z,13.27
2022-10-28T18:57:28.162Z,11.18
2022-10-28T19:00:18.663Z,13.57
2022-10-28T19:03:05.859Z,12.05
2022-10-28T19:05:52.000Z,16.77
2022-10-28T19:08:38.661Z,15.45
2022-10-28T19:11:32.776Z,10.27
2022-10-28T19:14:18.624Z,11.75
2022-10-28T19:17:07.018Z,11.27
2022-10-28T19:19:53.011Z,12.80
2022-10-28T19:22:38.956Z,10.63
2022-10-28T19:25:24.820Z,10.73
2022-10-28T19:28:10.906Z,10.73
2022-10-28T19:31:05.801Z,10.10
2022-10-28T19:33:53.557Z,14.25
2022-10-28T19:36:39.475Z,12.93
2022-10-28T19:39:25.419Z,11.95
2022-10-28T19:42:11.260Z,13.95
2022-10-28T19:44:57.908Z,10.70
2022-10-28T19:47:44.210Z,12.82
2022-10-28T19:50:31.308Z,13.50
2022-10-28T19:53:17.240Z,15.45
2022-10-28T19:56:04.612Z,16.10
2022-10-28T19:58:53.380Z,13.38
2022-10-28T20:01:43.830Z,20.17
2022-10-28T20:04:30.729Z,12.68
2022-10-28T20:07:16.609Z,17.38
2022-10-28T20:10:02.554Z,14.50
2022-10-28T20:12:48.655Z,13.15
2022-10-28T20:15:34.458Z,10.30
2022-10-28T20:18:20.652Z,10.98
2022-10-28T20:21:15.731Z,14.52
2022-10-28T20:24:04.431Z,13.43
2022-10-28T20:26:50.808Z,13.48
2022-10-28T20:29:36.578Z,11.13
2022-10-28T20:32:24.674Z,17.88
2022-10-28T20:35:10.937Z,17.10
2022-10-28T20:37:57.722Z,19.67
2022-10-28T20:41:02.490Z,21.60
2022-10-28T20:43:53.358Z,17.75
2022-10-28T20:46:40.850Z,22.88
2022-10-28T20:49:27.389Z,14.38
2022-10-28T20:52:16.534Z,15.65
2022-10-28T20:55:03.079Z,18.15
2022-10-28T20:57:49.910Z,17.02
2022-10-28T21:00:35.986Z,18.10
2022-10-28T21:03:22.360Z,15.75
2022-10-28T21:06:09.113Z,17.25
2022-10-28T21:08:56.526Z,17.10
2022-10-28T21:11:44.716Z,23.58
2022-10-28T21:14:31.493Z,15.68
2022-10-28T21:17:17.767Z,19.17
2022-10-28T21:20:04.074Z,14.90
2022-10-28T21:22:50.376Z,18.35
2022-10-28T21:25:36.394Z,15.05
2022-10-28T21:28:22.730Z,12.85
2022-10-28T21:31:12.361Z,9.00
2022-10-28T21:33:59.173Z,10.82
2022-10-28T21:36:46.612Z,15.93
2022-10-28T21:39:32.598Z,11.73
2022-10-28T21:42:18.873Z,16.40
2022-10-28T21:45:07.517Z,17.52
2022-10-28T21:47:56.965Z,13.48
2022-10-28T21:50:50.942Z,20.17
2022-10-28T21:53:38.259Z,14.85
2022-10-28T21:56:27.398Z,14.23
2022-10-28T21:59:13.750Z,22.55
2022-10-28T22:01:59.715Z,15.25
2022-10-28T22:04:46.144Z,14.68
2022-10-28T22:07:34.997Z,16.95
2022-10-28T22:10:20.918Z,14.30
2022-10-28T22:13:06.914Z,14.25
2022-10-28T22:15:57.897Z,16.98
2022-10-28T22:18:44.804Z,16.20
2022-10-28T22:21:33.524Z,16.08
2022-10-28T22:24:19.410Z,19.88
2022-10-28T22:27:06.052Z,18.90
2022-10-28T22:29:52.681Z,17.75
2022-10-28T22:32:38.983Z,15.07
2022-10-28T22:35:24.821Z,17.30
2022-10-28T22:38:10.774Z,16.88
2022-10-28T22:41:20.920Z,13.40
2022-10-28T22:44:07.562Z,13.40
2022-10-28T22:46:56.568Z,18.70
2022-10-28T22:49:42.502Z,14.05
2022-10-28T22:52:28.452Z,14.63
2022-10-28T22:55:15.183Z,12.88
2022-10-28T22:58:01.586Z,16.60
2022-10-28T23:00:47.631Z,15.07
2022-10-28T23:03:42.100Z,15.20
2022-10-28T23:06:28.687Z,18.60
2022-10-28T23:09:14.640Z,21.80
2022-10-28T23:12:00.575Z,11.20
2022-10-28T23:14:46.457Z,10.07
2022-10-28T23:17:32.251Z,13.93
2022-10-28T23:20:19.819Z,15.52
2022-10-28T23:23:06.075Z,14.32
2022-10-28T23:25:53.505Z,11.60
2022-10-28T23:28:40.467Z,15.02
2022-10-28T23:31:27.550Z,9.07
2022-10-28T23:34:13.422Z,14.32
2022-10-28T23:36:59.524Z,16.42
2022-10-28T23:39:45.431Z,13.52
2022-10-28T23:42:31.503Z,16.73
2022-10-28T23:45:17.485Z,12.95
2022-10-28T23:48:03.258Z,20.75
2022-10-28T23:50:49.470Z,18.30
2022-10-28T23:53:35.444Z,13.93
2022-10-28T23:56:24.570Z,8.48
2022-10-28T23:59:10.701Z,11.57
